Time;durP1;ratioP1;P1;durP2;ratioP2;P2;SDS_P1;SDS_P2;PMS_P1;PMS_P2;Temp;Humidity;BMP_temperature;BMP_pressure;BME280_temperature;BME280_humidity;BME280_pressure;Samples;Min_cycle;Max_cycle;Signal;HPM_P1;HPM_P2
2023/07/20 00:01:59;;;;;;;14.52;7.47;;;;;;;16.14;93.63;101352.09;4987787;28;20475;-63
2023/07/20 00:04:24;;;;;;;12.40;7.63;;;;;;;16.12;93.45;101348.78;4986819;28;20030;-63
2023/07/20 00:06:49;;;;;;;14.02;8.10;;;;;;;16.14;93.89;101356.63;4987426;28;20041;-63
2023/07/20 00:09:14;;;;;;;12.00;8.25;;;;;;;16.17;94.23;101351.72;4985593;28;20038;-63
2023/07/20 00:11:40;;;;;;;15.02;8.27;;;;;;;16.26;94.61;101361.28;4983331;28;20049;-63
2023/07/20 00:14:06;;;;;;;13.18;8.05;;;;;;;16.24;94.91;101352.63;4984654;28;20030;-63
2023/07/20 00:16:31;;;;;;;14.30;8.23;;;;;;;16.26;95.06;101355.09;4985603;28;20026;-63
2023/07/20 00:18:56;;;;;;;12.13;8.10;;;;;;;16.28;95.13;101364.59;4987389;28;20030;-64
2023/07/20 00:21:22;;;;;;;12.35;8.02;;;;;;;16.30;95.38;101369.75;4986367;28;20105;-63
2023/07/20 00:23:47;;;;;;;10.68;7.97;;;;;;;16.28;95.32;101361.91;4987454;28;20407;-63
2023/07/20 00:26:12;;;;;;;16.17;8.32;;;;;;;16.27;95.46;101368.31;4985905;28;20034;-63
2023/07/20 00:28:37;;;;;;;15.13;8.68;;;;;;;16.23;95.49;101363.53;4985529;28;20073;-63
2023/07/20 00:31:04;;;;;;;15.57;8.27;;;;;;;16.19;95.50;101362.22;4985606;28;20125;-63
2023/07/20 00:33:29;;;;;;;16.45;8.40;;;;;;;16.13;95.40;101361.16;4987058;28;20045;-63
2023/07/20 00:35:55;;;;;;;14.40;8.23;;;;;;;16.16;95.97;101352.72;4984767;28;20061;-63
2023/07/20 00:38:20;;;;;;;17.08;9.35;;;;;;;16.24;96.37;101357.97;4985629;28;20045;-63
2023/07/20 00:40:46;;;;;;;14.88;7.93;;;;;;;16.23;96.83;101359.00;4985898;28;20439;-63
2023/07/20 00:43:11;;;;;;;15.68;8.85;;;;;;;16.20;96.98;101359.38;4986514;28;20073;-64
2023/07/20 00:45:37;;;;;;;13.90;8.80;;;;;;;16.19;96.79;101362.22;4984017;28;20072;-64
2023/07/20 00:48:04;;;;;;;14.50;8.73;;;;;;;16.15;96.79;101369.84;4983953;28;20070;-63
2023/07/20 00:50:30;;;;;;;17.35;8.20;;;;;;;16.11;96.96;101363.22;4987499;28;20037;-63
2023/07/20 00:52:56;;;;;;;15.95;8.20;;;;;;;16.08;96.78;101369.78;4986559;28;20034;-63
2023/07/20 00:55:23;;;;;;;13.63;8.25;;;;;;;16.10;96.96;101372.28;4985440;28;20026;-63
2023/07/20 00:57:49;;;;;;;11.43;8.05;;;;;;;16.18;97.38;101361.41;4983311;28;20038;-63
2023/07/20 01:00:15;;;;;;;14.55;8.50;;;;;;;16.19;97.75;101360.41;4986011;28;20034;-63
2023/07/20 01:02:40;;;;;;;12.82;8.48;;;;;;;16.24;98.04;101371.38;4985183;28;20038;-63
2023/07/20 01:05:06;;;;;;;13.57;8.60;;;;;;;16.27;98.11;101368.31;4986227;28;20038;-63
2023/07/20 01:07:46;;;;;;;13.30;8.82;;;;;;;16.29;97.99;101362.75;4986660;28;20014;-63
2023/07/20 01:10:31;;;;;;;15.50;8.73;;;;;;;16.38;98.19;101372.28;4981288;28;20504;-63
2023/07/20 01:12:57;;;;;;;11.98;8.88;;;;;;;16.41;98.11;101372.72;4985077;28;20129;-63
2023/07/20 01:15:23;;;;;;;11.05;8.05;;;;;;;16.40;98.13;101368.38;4982166;28;20041;-63
2023/07/20 01:17:48;;;;;;;15.23;9.57;;;;;;;16.41;97.74;101371.88;4985379;28;20034;-63
2023/07/20 01:20:15;;;;;;;13.52;9.45;;;;;;;16.42;97.68;101373.53;4985864;28;20057;-63
2023/07/20 01:23:17;;;;;;;11.77;9.90;;;;;;;16.47;97.48;101372.94;4984967;28;20022;-63
2023/07/20 01:26:02;;;;;;;13.68;10.32;;;;;;;16.50;97.30;101377.94;4984668;28;20046;-63
2023/07/20 01:28:46;;;;;;;13.77;10.57;;;;;;;16.49;97.16;101376.28;4984517;28;20022;-63
2023/07/20 01:31:14;;;;;;;16.63;11.23;;;;;;;16.43;96.79;101378.72;4985185;28;20033;-63
2023/07/20 01:33:41;;;;;;;16.48;11.35;;;;;;;16.38;96.54;101381.16;4981443;28;20061;-63
2023/07/20 01:36:07;;;;;;;15.13;11.88;;;;;;;16.33;96.38;101378.22;4985618;28;20631;-63
2023/07/20 01:38:33;;;;;;;15.95;11.32;;;;;;;16.29;96.04;101371.63;4983434;28;20034;-63
2023/07/20 01:40:59;;;;;;;18.27;13.10;;;;;;;16.27;96.11;101378.19;4985673;28;20034;-64
2023/07/20 01:43:24;;;;;;;16.52;12.88;;;;;;;16.24;95.96;101373.22;4983574;28;20041;-63
2023/07/20 01:45:49;;;;;;;18.45;13.95;;;;;;;16.21;95.77;101379.81;4984048;28;20488;-63
2023/07/20 01:48:14;;;;;;;16.90;12.80;;;;;;;16.17;95.53;101375.84;4984068;28;20034;-63
2023/07/20 01:50:40;;;;;;;17.17;12.43;;;;;;;16.14;95.32;101373.53;4986286;28;21001;-63
2023/07/20 01:53:05;;;;;;;16.30;12.90;;;;;;;16.10;94.94;101383.00;4984605;28;20672;-63
2023/07/20 01:55:30;;;;;;;18.83;12.40;;;;;;;16.08;95.52;101382.38;4985868;28;20026;-63
2023/07/20 01:57:56;;;;;;;17.25;13.15;;;;;;;16.08;95.05;101387.72;4984676;28;20022;-63
2023/07/20 02:00:23;;;;;;;18.42;12.85;;;;;;;16.04;95.27;101379.25;4985785;28;20073;-63
2023/07/20 02:02:49;;;;;;;17.98;13.10;;;;;;;15.96;95.26;101374.03;4984705;28;20026;-63
2023/07/20 02:05:14;;;;;;;14.52;11.73;;;;;;;15.97;94.80;101388.25;4983260;28;20308;-63
2023/07/20 02:07:40;;;;;;;18.60;13.18;;;;;;;15.97;94.85;101386.41;4980497;28;20030;-63
2023/07/20 02:10:06;;;;;;;17.58;12.70;;;;;;;15.96;95.20;101381.25;4983685;28;20574;-63
2023/07/20 02:12:31;;;;;;;16.75;13.35;;;;;;;15.93;95.22;101386.97;4985545;28;20044;-63
2023/07/20 02:14:57;;;;;;;19.40;13.38;;;;;;;15.91;95.17;101391.72;4981673;28;20096;-63
2023/07/20 02:17:22;;;;;;;16.05;12.60;;;;;;;15.96;95.58;101397.31;4981492;28;20030;-63
2023/07/20 02:19:52;;;;;;;18.10;12.55;;;;;;;15.93;95.63;101398.53;4984641;28;20049;-63
2023/07/20 02:22:17;;;;;;;13.60;11.40;;;;;;;15.94;95.46;101399.34;4983471;28;20081;-63
2023/07/20 02:24:43;;;;;;;18.55;12.55;;;;;;;15.92;95.23;101401.41;4984264;28;20050;-63
2023/07/20 02:27:08;;;;;;;16.67;12.60;;;;;;;15.90;95.21;101400.72;4982228;28;20124;-63
2023/07/20 02:29:33;;;;;;;18.63;12.07;;;;;;;15.92;95.23;101402.22;4980251;28;20037;-63
2023/07/20 02:31:59;;;;;;;15.48;12.25;;;;;;;15.91;95.50;101397.88;4982954;28;20026;-63
2023/07/20 02:34:24;;;;;;;15.23;11.73;;;;;;;15.93;95.51;101408.41;4984632;28;20056;-63
2023/07/20 02:36:49;;;;;;;15.95;12.20;;;;;;;15.88;95.46;101403.59;4981465;28;20396;-63
2023/07/20 02:39:15;;;;;;;18.15;11.90;;;;;;;15.82;95.34;101411.59;4981999;28;20058;-63
2023/07/20 02:41:41;;;;;;;16.83;11.18;;;;;;;15.80;95.20;101414.44;4984585;28;20037;-63
2023/07/20 02:44:06;;;;;;;13.38;10.10;;;;;;;15.78;95.46;101405.78;4983427;28;20040;-63
2023/07/20 02:46:32;;;;;;;13.38;10.27;;;;;;;15.75;95.32;101411.53;4983142;28;20027;-63
2023/07/20 02:48:57;;;;;;;12.20;9.27;;;;;;;15.72;94.91;101417.25;4987287;28;20022;-63
2023/07/20 02:51:22;;;;;;;8.40;7.40;;;;;;;15.67;95.12;101412.47;4986790;28;20376;-63
2023/07/20 02:53:47;;;;;;;7.78;6.72;;;;;;;15.66;94.53;101416.19;4988366;28;20033;-63
2023/07/20 02:56:13;;;;;;;11.23;7.13;;;;;;;15.64;94.81;101420.06;4982845;28;20022;-63
2023/07/20 02:58:43;;;;;;;8.85;6.95;;;;;;;15.56;94.71;101418.28;4984761;28;20042;-63
2023/07/20 03:01:09;;;;;;;10.40;7.13;;;;;;;15.54;94.53;101425.66;4978611;28;20026;-63
2023/07/20 03:03:38;;;;;;;9.70;7.13;;;;;;;15.48;94.89;101426.44;4983933;28;20044;-63
2023/07/20 03:06:08;;;;;;;9.38;7.72;;;;;;;15.38;94.52;101436.63;4981919;28;20030;-63
2023/07/20 03:08:34;;;;;;;9.30;7.78;;;;;;;15.26;94.43;101430.06;4987086;28;20018;-63
2023/07/20 03:10:59;;;;;;;12.27;8.07;;;;;;;15.18;94.58;101433.69;4985506;28;20027;-63
2023/07/20 03:13:24;;;;;;;10.40;8.60;;;;;;;15.09;94.33;101435.63;4987600;28;20061;-63
2023/07/20 03:15:49;;;;;;;14.48;9.80;;;;;;;15.04;94.56;101438.03;4988142;28;20030;-63
2023/07/20 03:18:14;;;;;;;15.43;9.93;;;;;;;14.99;94.69;101435.06;4983464;28;20042;-63
2023/07/20 03:20:40;;;;;;;11.50;9.50;;;;;;;14.88;94.61;101438.22;4980473;28;20026;-63
2023/07/20 03:23:05;;;;;;;11.20;10.00;;;;;;;14.85;94.95;101442.09;4985411;28;20022;-63
2023/07/20 03:25:30;;;;;;;12.07;9.80;;;;;;;14.80;95.23;101443.66;4987063;28;20057;-63
2023/07/20 03:27:56;;;;;;;13.02;9.90;;;;;;;14.74;95.41;101444.38;4987581;28;20081;-63
2023/07/20 03:30:21;;;;;;;13.63;10.23;;;;;;;14.69;95.79;101442.25;4986980;28;20030;-63
2023/07/20 03:32:46;;;;;;;17.42;9.57;;;;;;;14.69;96.11;101444.91;4987074;28;20037;-63
2023/07/20 03:35:12;;;;;;;11.95;9.70;;;;;;;14.56;96.22;101426.84;4983500;28;20080;-63
2023/07/20 03:37:38;;;;;;;14.25;9.65;;;;;;;14.55;96.13;101453.75;4986216;28;20069;-63
2023/07/20 03:40:04;;;;;;;10.75;9.30;;;;;;;14.47;95.86;101452.00;4987130;28;20106;-63
2023/07/20 03:42:30;;;;;;;10.00;9.00;;;;;;;14.45;96.13;101453.16;4987286;28;20026;-63
2023/07/20 03:44:56;;;;;;;10.23;9.13;;;;;;;14.39;96.00;101449.34;4986028;28;20026;-62
2023/07/20 03:47:21;;;;;;;11.48;8.93;;;;;;;14.36;96.32;101447.03;4984095;28;20025;-63
2023/07/20 03:49:46;;;;;;;12.20;8.50;;;;;;;14.33;96.52;101458.09;4981972;28;20049;-63
2023/07/20 03:52:11;;;;;;;12.52;8.63;;;;;;;14.26;96.28;101457.16;4985729;28;20039;-63
2023/07/20 03:54:37;;;;;;;11.18;9.25;;;;;;;14.22;96.77;101454.00;4989041;28;20463;-63
2023/07/20 03:57:02;;;;;;;14.05;8.05;;;;;;;14.12;96.20;101457.91;4988059;28;20041;-63
2023/07/20 03:59:27;;;;;;;9.52;6.63;;;;;;;14.03;96.44;101459.81;4991059;28;20026;-62
2023/07/20 04:01:53;;;;;;;15.13;5.43;;;;;;;13.99;96.57;101455.03;4991323;28;20484;-63
2023/07/20 04:04:18;;;;;;;27.45;5.70;;;;;;;13.92;97.46;101461.09;4984809;28;20018;-63
2023/07/20 04:06:46;;;;;;;18.05;4.93;;;;;;;13.88;96.70;101461.63;4983688;28;20027;-63
2023/07/20 04:09:12;;;;;;;5.72;5.22;;;;;;;13.81;96.95;101464.13;4990872;28;20022;-63
2023/07/20 04:11:38;;;;;;;7.57;4.82;;;;;;;13.84;97.15;101457.59;4983148;28;20019;-63
2023/07/20 04:14:03;;;;;;;5.80;5.20;;;;;;;13.85;97.21;101460.09;4988704;28;20041;-63
2023/07/20 04:16:28;;;;;;;10.73;4.50;;;;;;;13.83;97.48;101464.78;4989536;28;20031;-63
2023/07/20 04:18:57;;;;;;;5.63;5.13;;;;;;;13.88;98.14;101472.28;4987772;28;20095;-62
2023/07/20 04:21:22;;;;;;;7.50;6.07;;;;;;;13.87;97.92;101473.28;4990437;28;20049;-63
2023/07/20 04:23:48;;;;;;;5.50;4.97;;;;;;;13.83;97.80;101470.13;4990359;28;20484;-63
2023/07/20 04:26:14;;;;;;;6.72;6.07;;;;;;;13.83;97.94;101470.13;4991178;28;20019;-63
2023/07/20 04:28:42;;;;;;;8.52;6.65;;;;;;;13.81;98.44;101465.97;4988218;28;20016;-63
2023/07/20 04:31:12;;;;;;;8.82;7.43;;;;;;;13.87;98.58;101462.59;4990457;28;20067;-63
2023/07/20 04:33:37;;;;;;;8.77;7.93;;;;;;;13.92;98.86;101465.59;4987027;28;20069;-63
2023/07/20 04:36:03;;;;;;;10.23;8.05;;;;;;;13.93;99.39;101469.91;4990351;28;20081;-63
2023/07/20 04:38:28;;;;;;;8.60;7.57;;;;;;;13.98;99.31;101458.69;4987806;28;20591;-63
2023/07/20 04:40:53;;;;;;;9.00;7.53;;;;;;;13.94;99.51;101461.72;4992638;28;20395;-63
2023/07/20 04:43:19;;;;;;;10.10;7.60;;;;;;;13.94;99.27;101463.56;4987755;28;20037;-63
2023/07/20 04:45:44;;;;;;;8.93;7.47;;;;;;;13.90;99.29;101463.09;4986937;28;20031;-63
2023/07/20 04:48:12;;;;;;;9.50;7.97;;;;;;;13.90;99.20;101465.78;4983479;28;20030;-63
2023/07/20 04:50:38;;;;;;;11.20;8.07;;;;;;;13.92;99.86;101460.25;4987069;28;20024;-63
2023/07/20 04:53:03;;;;;;;9.77;8.48;;;;;;;13.94;100.00;101469.75;4987406;28;20637;-63
2023/07/20 04:55:29;;;;;;;11.18;9.20;;;;;;;14.00;100.00;101470.03;4989230;28;20022;-63
2023/07/20 04:57:54;;;;;;;11.85;9.57;;;;;;;14.02;100.00;101465.34;4989069;28;20026;-63
2023/07/20 05:00:21;;;;;;;11.35;9.80;;;;;;;14.05;100.00;101470.34;4983116;28;20028;-63
2023/07/20 05:02:48;;;;;;;13.35;10.52;;;;;;;14.09;100.00;101467.13;4988821;28;20506;-63
2023/07/20 05:05:14;;;;;;;13.35;11.45;;;;;;;14.18;100.00;101462.56;4988903;28;20097;-63
2023/07/20 05:07:39;;;;;;;18.67;14.63;;;;;;;14.22;100.00;101466.53;4989377;28;20156;-63
2023/07/20 05:10:05;;;;;;;15.57;13.95;;;;;;;14.26;100.00;101465.16;4988660;28;20054;-63
2023/07/20 05:12:30;;;;;;;21.95;15.75;;;;;;;14.31;100.00;101476.16;4990536;28;20026;-63
2023/07/20 05:14:56;;;;;;;22.30;16.15;;;;;;;14.32;100.00;101472.47;4988892;28;20022;-63
2023/07/20 05:17:21;;;;;;;20.25;16.30;;;;;;;14.33;100.00;101482.13;4989466;28;20446;-63
2023/07/20 05:19:46;;;;;;;20.75;16.63;;;;;;;14.36;100.00;101472.94;4985659;28;20045;-63
2023/07/20 05:22:13;;;;;;;22.83;17.08;;;;;;;14.42;100.00;101473.03;4988951;28;20024;-63
2023/07/20 05:24:39;;;;;;;24.92;18.17;;;;;;;14.63;100.00;101469.72;4984813;28;20436;-63
2023/07/20 05:27:04;;;;;;;23.67;17.63;;;;;;;14.62;100.00;101472.56;4986261;28;20026;-63
2023/07/20 05:29:29;;;;;;;20.25;17.02;;;;;;;14.68;100.00;101477.19;4983276;28;20018;-63
2023/07/20 05:31:55;;;;;;;21.75;17.52;;;;;;;14.63;100.00;101464.38;4989474;28;20026;-63
2023/07/20 05:34:20;;;;;;;21.85;17.08;;;;;;;14.78;100.00;101480.44;4986878;28;20550;-63
2023/07/20 05:36:46;;;;;;;20.77;16.70;;;;;;;14.81;100.00;101488.09;4983593;28;20068;-62
2023/07/20 05:39:11;;;;;;;21.02;17.08;;;;;;;14.80;100.00;101486.44;4985645;28;20033;-63
2023/07/20 05:41:36;;;;;;;22.55;16.65;;;;;;;14.82;100.00;101487.91;4987739;28;20014;-63
2023/07/20 05:44:01;;;;;;;21.67;17.42;;;;;;;14.84;100.00;101498.44;4986861;28;20510;-63
2023/07/20 05:46:27;;;;;;;20.33;17.42;;;;;;;14.87;100.00;101504.25;4989520;28;20089;-63
2023/07/20 05:48:52;;;;;;;24.00;18.15;;;;;;;14.91;100.00;101495.84;4984238;28;20033;-63
2023/07/20 05:51:17;;;;;;;23.02;18.30;;;;;;;14.91;100.00;101499.34;4981495;28;20038;-63
2023/07/20 05:53:42;;;;;;;25.25;17.52;;;;;;;14.94;100.00;101496.31;4989147;28;20028;-62
2023/07/20 05:56:11;;;;;;;25.80;18.05;;;;;;;14.96;100.00;101496.13;4987682;28;20037;-62
2023/07/20 05:58:36;;;;;;;21.25;18.10;;;;;;;14.98;100.00;101504.78;4980828;28;20038;-62
2023/07/20 06:01:05;;;;;;;23.80;17.65;;;;;;;14.97;100.00;101498.63;4985373;28;20416;-62
2023/07/20 06:03:31;;;;;;;20.10;17.17;;;;;;;14.98;100.00;101494.94;4983644;28;20061;-63
2023/07/20 06:06:03;;;;;;;21.00;16.42;;;;;;;15.01;100.00;101499.91;4985092;28;20172;-63
2023/07/20 06:08:29;;;;;;;17.98;15.70;;;;;;;15.07;100.00;101496.53;4982554;28;20018;-63
2023/07/20 06:10:54;;;;;;;17.20;13.82;;;;;;;15.06;100.00;101502.88;4982516;28;20480;-62
2023/07/20 06:13:20;;;;;;;20.00;13.98;;;;;;;15.15;100.00;101508.97;4983630;28;20053;-63
2023/07/20 06:15:45;;;;;;;20.20;15.48;;;;;;;15.29;100.00;101500.09;4987599;28;20550;-63
2023/07/20 06:18:10;;;;;;;17.08;14.60;;;;;;;15.53;100.00;101508.84;4986830;28;20054;-63
2023/07/20 06:20:36;;;;;;;12.20;10.88;;;;;;;15.67;100.00;101505.38;4985551;28;20033;-63
2023/07/20 06:23:01;;;;;;;11.52;9.80;;;;;;;15.75;100.00;101508.75;4985598;28;20041;-63
2023/07/20 06:25:26;;;;;;;11.70;9.18;;;;;;;15.83;100.00;101520.38;4988160;28;20022;-62
2023/07/20 06:27:52;;;;;;;10.15;7.95;;;;;;;15.88;100.00;101521.47;4986851;28;20488;-63
2023/07/20 06:30:18;;;;;;;10.75;9.00;;;;;;;15.99;100.00;101528.19;4982994;28;20034;-63
2023/07/20 06:32:43;;;;;;;8.35;7.43;;;;;;;16.16;99.80;101537.63;4982400;28;20112;-62
2023/07/20 06:35:08;;;;;;;10.32;8.20;;;;;;;16.27;99.03;101528.28;4986464;28;20030;-63
2023/07/20 06:37:35;;;;;;;10.00;7.97;;;;;;;16.33;98.14;101531.03;4985767;28;20521;-63
2023/07/20 06:40:01;;;;;;;10.02;8.10;;;;;;;16.32;97.05;101510.59;4984664;28;20022;-63
2023/07/20 06:42:26;;;;;;;10.30;7.72;;;;;;;16.46;96.63;101518.75;4983466;28;20054;-63
2023/07/20 06:44:51;;;;;;;12.60;7.47;;;;;;;16.52;96.01;101516.16;4985188;28;20108;-63
2023/07/20 06:47:17;;;;;;;10.82;7.97;;;;;;;16.59;95.54;101509.00;4986363;28;20026;-63
2023/07/20 06:49:42;;;;;;;12.73;7.97;;;;;;;16.66;95.40;101509.91;4985463;28;20022;-63
2023/07/20 06:52:07;;;;;;;9.13;8.13;;;;;;;16.70;94.82;101508.47;4982355;28;20026;-63
2023/07/20 06:54:32;;;;;;;9.07;7.80;;;;;;;16.72;94.58;101510.97;4984947;28;20033;-63
2023/07/20 06:56:58;;;;;;;8.88;7.80;;;;;;;16.76;93.88;101514.91;4983089;28;20076;-63
2023/07/20 06:59:24;;;;;;;8.35;7.05;;;;;;;16.77;93.66;101516.59;4986246;28;20025;-63
2023/07/20 07:01:49;;;;;;;8.65;7.65;;;;;;;16.82;93.24;101518.69;4986433;28;20030;-63
2023/07/20 07:04:14;;;;;;;9.25;8.25;;;;;;;16.92;93.13;101527.22;4984684;28;20031;-63
2023/07/20 07:06:40;;;;;;;10.82;8.18;;;;;;;17.05;92.91;101524.63;4984704;28;20033;-63
2023/07/20 07:09:05;;;;;;;7.40;6.15;;;;;;;17.20;92.85;101516.47;4985152;28;20030;-63
2023/07/20 07:11:31;;;;;;;7.43;6.70;;;;;;;17.28;91.99;101516.31;4987308;28;20022;-63
2023/07/20 07:13:56;;;;;;;6.47;4.70;;;;;;;17.41;91.20;101523.63;4986099;28;20428;-63
2023/07/20 07:16:21;;;;;;;5.35;4.85;;;;;;;17.50;90.30;101525.94;4984238;28;20037;-63
2023/07/20 07:18:47;;;;;;;7.45;5.63;;;;;;;17.64;89.78;101522.28;4987007;28;20018;-63
2023/07/20 07:21:12;;;;;;;7.55;5.85;;;;;;;17.74;89.58;101513.88;4981464;28;20030;-62
2023/07/20 07:23:38;;;;;;;5.30;4.53;;;;;;;17.80;89.36;101531.03;4991215;28;20026;-63
2023/07/20 07:26:04;;;;;;;6.30;4.70;;;;;;;17.83;88.25;101525.25;4988924;28;20028;-63
2023/07/20 07:28:29;;;;;;;6.35;4.75;;;;;;;17.87;87.66;101527.34;4990415;28;20097;-63
2023/07/20 07:30:56;;;;;;;6.82;5.22;;;;;;;17.88;87.13;101526.31;4990427;28;20550;-63
2023/07/20 07:33:22;;;;;;;8.13;5.63;;;;;;;17.93;86.86;101523.03;4985155;28;20018;-62
2023/07/20 07:35:47;;;;;;;6.45;5.50;;;;;;;18.04;86.44;101521.63;4985289;28;20021;-63
2023/07/20 07:38:12;;;;;;;6.78;5.28;;;;;;;18.17;86.27;101521.63;4982718;28;20023;-63
2023/07/20 07:40:37;;;;;;;5.90;4.80;;;;;;;18.23;85.67;101532.41;4987094;28;20030;-63
2023/07/20 07:43:03;;;;;;;5.88;4.40;;;;;;;18.24;84.83;101530.56;4983262;28;20570;-62
2023/07/20 07:45:28;;;;;;;4.18;3.40;;;;;;;18.29;83.67;101530.78;4987142;28;20044;-63
2023/07/20 07:47:54;;;;;;;4.72;3.28;;;;;;;18.25;82.70;101535.72;4988907;28;20025;-63
2023/07/20 07:50:19;;;;;;;5.78;4.50;;;;;;;18.09;81.92;101533.41;4982746;28;20058;-63
2023/07/20 07:52:44;;;;;;;7.13;4.00;;;;;;;17.89;81.66;101536.03;4985635;28;20026;-62
2023/07/20 07:55:10;;;;;;;6.55;4.20;;;;;;;17.79;82.53;101543.66;4984359;28;20081;-63
2023/07/20 07:57:35;;;;;;;4.22;3.83;;;;;;;17.65;82.37;101539.22;4990554;28;20027;-63
2023/07/20 08:00:00;;;;;;;4.47;3.47;;;;;;;17.46;82.38;101543.47;4990703;28;20114;-62
2023/07/20 08:02:26;;;;;;;6.63;3.50;;;;;;;17.31;82.63;101545.44;4991556;28;20025;-63
2023/07/20 08:04:52;;;;;;;3.70;2.80;;;;;;;17.20;81.89;101552.19;4982130;28;20106;-63
2023/07/20 08:07:17;;;;;;;3.65;2.47;;;;;;;17.10;81.83;101557.09;4985638;28;20057;-63
2023/07/20 08:09:43;;;;;;;3.97;2.28;;;;;;;17.05;81.50;101554.13;4989002;28;20591;-62
2023/07/20 08:12:08;;;;;;;4.63;1.95;;;;;;;17.00;81.03;101557.41;4985309;28;20041;-63
2023/07/20 08:14:33;;;;;;;5.85;2.03;;;;;;;17.00;80.97;101560.09;4990306;28;20029;-63
2023/07/20 08:16:59;;;;;;;4.57;2.05;;;;;;;16.97;80.56;101567.72;4990937;28;20023;-62
2023/07/20 08:19:24;;;;;;;2.42;2.22;;;;;;;16.98;80.38;101564.00;4981668;28;20026;-63
2023/07/20 08:21:49;;;;;;;5.32;2.35;;;;;;;17.08;80.42;101566.38;4990193;28;20054;-63
2023/07/20 08:24:14;;;;;;;4.10;2.35;;;;;;;17.11;80.32;101564.13;4986068;28;20022;-63
2023/07/20 08:26:40;;;;;;;2.13;1.90;;;;;;;17.18;79.52;101561.47;4990839;28;20033;-63
2023/07/20 08:29:05;;;;;;;4.05;2.70;;;;;;;17.31;79.49;101565.06;4988563;28;20436;-63
2023/07/20 08:31:30;;;;;;;3.70;2.38;;;;;;;17.40;78.84;101562.22;4987692;28;20401;-62
2023/07/20 08:33:56;;;;;;;3.72;1.98;;;;;;;17.62;78.22;101558.41;4982098;28;20045;-63
2023/07/20 08:36:22;;;;;;;2.10;1.60;;;;;;;17.89;78.06;101565.59;4983567;28;20027;-64
2023/07/20 08:38:48;;;;;;;4.25;2.45;;;;;;;18.08;77.66;101555.13;4988278;28;20022;-63
2023/07/20 08:41:14;;;;;;;3.63;2.15;;;;;;;18.15;77.20;101559.47;4988305;28;20049;-63
2023/07/20 08:43:43;;;;;;;4.93;2.08;;;;;;;18.23;76.53;101562.00;4988823;28;20454;-63
2023/07/20 08:46:10;;;;;;;3.10;2.30;;;;;;;18.47;76.36;101557.88;4986134;28;20030;-62
2023/07/20 08:48:36;;;;;;;2.50;2.28;;;;;;;18.70;76.41;101557.53;4987961;28;20043;-63
2023/07/20 08:51:04;;;;;;;4.03;2.03;;;;;;;18.99;76.15;101555.44;4984082;28;20098;-63
2023/07/20 08:53:31;;;;;;;2.77;1.97;;;;;;;19.27;75.36;101556.03;4982394;28;20073;-63
2023/07/20 08:55:58;;;;;;;1.60;1.50;;;;;;;19.27;74.10;101558.72;4985656;28;20050;-63
2023/07/20 08:58:25;;;;;;;3.55;2.08;;;;;;;19.44;74.49;101551.84;4984296;28;20077;-62
2023/07/20 09:00:51;;;;;;;4.03;1.88;;;;;;;19.44;73.76;101556.41;4986772;28;20034;-63
2023/07/20 09:03:16;;;;;;;4.10;2.10;;;;;;;19.27;72.33;101550.63;4987359;28;20384;-62
2023/07/20 09:05:41;;;;;;;2.65;1.70;;;;;;;19.03;70.30;101551.28;4985660;28;20105;-63
2023/07/20 09:08:07;;;;;;;2.25;1.50;;;;;;;18.87;69.46;101552.56;4987601;28;20130;-63
2023/07/20 09:10:32;;;;;;;3.20;1.60;;;;;;;18.76;69.01;101556.69;4988216;28;20045;-62
2023/07/20 09:12:58;;;;;;;2.15;1.60;;;;;;;18.76;69.34;101554.00;4985048;28;20030;-63
2023/07/20 09:15:23;;;;;;;2.25;1.50;;;;;;;18.70;69.50;101554.84;4988756;28;20097;-63
2023/07/20 09:17:50;;;;;;;1.02;0.95;;;;;;;18.71;68.96;101561.03;4989701;28;20615;-63
2023/07/20 09:20:17;;;;;;;1.77;1.00;;;;;;;18.65;67.77;101557.31;4987810;28;20026;-63
2023/07/20 09:22:43;;;;;;;1.30;1.20;;;;;;;18.72;67.44;101552.75;4987393;28;20019;-63
2023/07/20 09:25:15;;;;;;;1.35;1.02;;;;;;;18.62;67.36;101549.66;4982425;28;20055;-63
2023/07/20 09:27:43;;;;;;;1.60;1.17;;;;;;;18.76;67.54;101556.69;4989410;28;20480;-63
2023/07/20 09:30:11;;;;;;;2.17;1.10;;;;;;;18.87;67.99;101555.25;4981391;28;20122;-63
2023/07/20 09:32:50;;;;;;;1.63;1.20;;;;;;;18.94;67.50;101548.00;4988686;28;20030;-63
2023/07/20 09:35:17;;;;;;;1.80;1.30;;;;;;;19.00;67.30;101547.16;4984537;28;20480;-63
2023/07/20 09:38:01;;;;;;;1.55;1.30;;;;;;;19.16;67.48;101548.59;4982559;28;20112;-63
2023/07/20 09:40:27;;;;;;;2.38;1.25;;;;;;;19.18;67.37;101538.44;4988757;28;20117;-63
2023/07/20 09:43:00;;;;;;;2.05;1.25;;;;;;;19.17;66.71;101542.19;4988974;28;20109;-63
2023/07/20 09:45:39;;;;;;;1.63;1.30;;;;;;;19.22;66.24;101536.97;4986418;28;20642;-63
2023/07/20 09:48:06;;;;;;;1.90;1.45;;;;;;;19.39;66.36;101540.88;4984716;28;20025;-63
2023/07/20 09:50:42;;;;;;;1.77;1.40;;;;;;;19.57;66.28;101529.44;4989545;28;20033;-63
2023/07/20 09:53:11;;;;;;;1.85;1.38;;;;;;;19.76;66.38;101538.50;4988095;28;20026;-63
2023/07/20 09:55:37;;;;;;;2.08;1.30;;;;;;;19.89;66.39;101541.13;4989426;28;20030;-62
2023/07/20 09:58:02;;;;;;;4.03;1.50;;;;;;;19.93;65.92;101539.66;4987601;28;20105;-63
2023/07/20 10:00:28;;;;;;;2.60;1.40;;;;;;;19.98;65.36;101539.84;4988849;28;20080;-63
2023/07/20 10:02:55;;;;;;;2.85;1.20;;;;;;;20.06;64.50;101536.06;4988937;28;20101;-63
2023/07/20 10:05:21;;;;;;;1.45;1.13;;;;;;;20.12;63.23;101535.19;4984859;28;20065;-63
2023/07/20 10:07:49;;;;;;;2.55;1.15;;;;;;;20.22;62.97;101546.31;4981246;28;20058;-63
2023/07/20 10:10:19;;;;;;;1.10;1.00;;;;;;;20.27;62.93;101540.31;4989066;28;20022;-63
2023/07/20 10:12:48;;;;;;;3.20;1.13;;;;;;;20.43;63.11;101539.78;4980634;28;20519;-63
2023/07/20 10:15:20;;;;;;;3.78;1.38;;;;;;;20.53;62.53;101534.75;4981795;28;20028;-63
2023/07/20 10:18:31;;;;;;;2.03;1.20;;;;;;;20.67;61.32;101533.59;4984946;28;20722;-63
2023/07/20 10:20:59;;;;;;;2.45;1.15;;;;;;;20.97;61.17;101538.31;4985064;28;20500;-63
2023/07/20 10:23:26;;;;;;;2.77;1.20;;;;;;;21.23;61.95;101526.44;4987965;28;20571;-63
2023/07/20 10:25:53;;;;;;;2.78;1.30;;;;;;;21.59;61.01;101531.84;4988181;28;20285;-63
2023/07/20 10:28:18;;;;;;;1.30;1.20;;;;;;;21.75;60.48;101516.09;4986588;28;20018;-63
2023/07/20 10:30:45;;;;;;;2.00;1.40;;;;;;;21.72;59.25;101525.47;4986536;28;20738;-63
2023/07/20 10:33:11;;;;;;;2.00;1.25;;;;;;;21.71;58.89;101525.69;4987601;28;20037;-60
2023/07/20 10:35:54;;;;;;;1.38;1.10;;;;;;;21.82;58.35;101527.63;4983047;28;20026;-61
2023/07/20 10:38:20;;;;;;;2.22;1.00;;;;;;;21.50;56.93;101513.47;4986192;28;20076;-60
2023/07/20 10:40:54;;;;;;;1.80;1.02;;;;;;;21.69;58.08;101523.22;4984031;28;20030;-61
2023/07/20 10:43:20;;;;;;;2.95;1.10;;;;;;;21.76;56.61;101518.56;4984632;28;20027;-61
2023/07/20 10:45:50;;;;;;;2.25;1.00;;;;;;;21.74;56.12;101517.13;4985004;28;20033;-60
2023/07/20 10:48:16;;;;;;;2.05;1.00;;;;;;;21.39;55.22;101511.50;4986470;28;20030;-60
2023/07/20 10:50:43;;;;;;;1.40;1.10;;;;;;;21.21;55.29;101513.16;4987997;28;20153;-61
2023/07/20 10:53:16;;;;;;;1.80;1.15;;;;;;;21.11;55.45;101515.56;4984964;28;20037;-61
2023/07/20 10:55:43;;;;;;;1.30;1.10;;;;;;;21.20;55.81;101511.50;4988790;28;20502;-60
2023/07/20 10:58:14;;;;;;;1.25;1.10;;;;;;;21.34;55.40;101509.50;4986361;28;20023;-61
2023/07/20 11:01:00;;;;;;;2.15;1.10;;;;;;;21.38;55.17;101507.97;4989803;28;20099;-61
2023/07/20 11:03:31;;;;;;;2.15;1.10;;;;;;;21.13;54.87;101518.03;4990603;28;20554;-61
2023/07/20 11:05:57;;;;;;;2.25;1.20;;;;;;;20.85;54.16;101503.13;4990017;28;20022;-60
2023/07/20 11:08:42;;;;;;;3.78;1.30;;;;;;;21.10;55.26;101508.47;4990730;28;20038;-60
2023/07/20 11:11:24;;;;;;;2.10;1.20;;;;;;;21.34;55.01;101504.91;4988683;28;20088;-60
2023/07/20 11:14:00;;;;;;;1.30;0.90;;;;;;;21.29;54.92;101499.38;4990503;28;20014;-61
2023/07/20 11:16:43;;;;;;;1.38;0.93;;;;;;;21.36;54.47;101498.44;4992244;28;20030;-61